Wenn Sie den Mauscursor in der Übersichtskarte über ein Stationssymbol ziehen, so werden die aktuellen Stationsdaten eingeblendet. Neben dem Stationsnamen wird der Zeitpunkt in MEZ eingeblendet, bis zu dem aktuelle Daten verfügbar sind. Zunächst wird die aktuelle Niederschlagsumme für das letzte Messintervall angegeben (15 Minuten). Dadurch wird ersichtlich, ob und in welcher Intensität es regnet. Danach wird die Niederschlagsumme für die vergangenen 24 Stunden angegeben. Der aktuelle Lufttemperaturwert rundet die Information zum Mouse - Over ab.   

Durch Anklicken des entsprechenden Stationssymbols gelangen Sie zu den Gangliniendarstellung der Niederschlagshöhe, der Lufttemperatur und (sofern vorhanden) auch der Luftfeuchte. Jeder Parameter ist für einen Zeitraum für 30 Tage dargestellt. 

Wo verfügbar, stellen wir die Niederschlagsverhältnisse des aktuellen Kalenderjahres und des Vorjahres den langjährigen Vergleichsreihen grafisch auf 2 Arten gegenüber.

Eine Grafik wird in Form von Summenlinien erstellt. In dieser wird die Niederschlagssumme für das aktuelle Kalenderjahr und jenes davor ab Jahresbeginn tageweise aufsummiert und so den Vergleichszeitreihen (ebenso als minimale, mittlere und maximale Summenlinien dargestellt) gegenübergestellt.

In einer anderen Grafik vergleichen wir die Niederschlags - Monatssummen des aktuellen Kalenderjahres und des Vorjahres mit den langjährigen Vergleichsreihen. Dabei stellen wir für die Vergleichszeitreihen das langjährige Mittel, das Maximum und das Minimum für jedes Monat dar.

Zudem können Sie die Daten für Messstationen des Hydrographischen Dienstes für die letzten 30 Tage downloaden.

Bei Stationen die von der Geosphere Austria betrieben werden, gibt es keine Downloadmöglichkeit.

Die  Stationssymbole auf der Übersichtskarte werden entsprechend der Niederschlagshöhe in den letzten 24 Stunden vor dem angegebenen Zeitpunkt bei der jeweiligen Station eingefärbt (siehe dazu Legende neben der Übersichtskarte).

Abschließend haben wir für Sie eine Übersichtstabelle unterhalb der Übersichtskarte angefügt. Hier werden die Niederschlagsstationen des Burgenlandes alphabetisch aufgelistet die aktuellen Messwerte dargestellt und es besteht die Möglichkeit der Navigation zu den bereits beschriebenen grafischen Darstellungen.

Stationsname Zeit [MEZ] NS [mm/15min] NS [mm/24h] Temp [°C] Luftfeuchte [%]
Andau 05.03.2024 02:15 0,0 0,0 8,6
Apetlon - A79 05.03.2024 02:15 0,0 0,0 9,6 100,0
Aspang 05.03.2024 02:15 0,0 0,0 -0,3
Bad Tatzmannsdorf 05.03.2024 02:15 0,0 0,0 1,3
Bernstein 05.03.2024 02:15 0,0 0,0 9,6
Bonisdorf 05.03.2024 02:15 0,0 0,0 7,1 96,0
Bruckneudorf 05.03.2024 02:15 0,0 0,0 8,3
Deutsch Jahrndorf 05.03.2024 02:15 0,0 0,0 7,7 90,0
Deutsch Kaltenbrunn 05.03.2024 02:15 0,0 0,0 4,4 84,0
Deutschkreutz 05.03.2024 02:15 0,0 0,0 3,1 98,0
Donnerskirchen 05.03.2024 02:15 0,0 0,0 11,2 63,0
Drassburg 05.03.2024 02:15 0,0 0,0 6,2 81,0
Dürnbach 05.03.2024 02:15 0,0 0,0 1,7 98,0
Eisenberg 05.03.2024 02:15 0,0 0,0 3,9 89,0
Eisenstadt 05.03.2024 02:15 0,0 0,0 9,8 74,0
Feldbach 05.03.2024 02:15 0,0 0,0 5,4
Fischbach 05.03.2024 02:15 0,0 0,0 3,8
Frankenau 05.03.2024 02:15 0,0 0,0 3,1 100,0
Frauenkirchen 05.03.2024 02:15 0,0 0,0 8,8 88,0
Fürstenfeld 05.03.2024 02:15 0,0 0,0 3,3
Gattendorf 05.03.2024 02:15 0,0 0,0 9,0 79,0
Glasing 05.03.2024 02:15 0,0 0,0 3,0 92,0
Gleisdorf 05.03.2024 02:15 0,0 0,0 4,5
Halbturn 05.03.2024 02:15 0,0 0,0 9,3 79,0
Heiligenkreuz 05.03.2024 02:15 0,0 0,0 3,6 97,0
Hirschenkogel 05.03.2024 02:15 0,0 0,0 4,5
Hirschenstein 05.03.2024 02:15 0,0 0,0 7,8 77,0
Illmitz - Biologische Station 05.03.2024 02:15 0,0 0,0 10,1 72,0
Karl 05.03.2024 02:15 0,0 0,0 2,0 100,0
Kleinzicken 05.03.2024 02:15 0,0 0,0 1,7
Kobersdorf 05.03.2024 02:15 0,0 0,0 7,7 77,0
Lutzmannsburg (GSA) 05.03.2024 02:15 0,0 0,0 3,9
Mattersburg 05.03.2024 02:15 0,0 0,0 4,8
Moenichkirchen 05.03.2024 02:15 0,0 0,0 4,2
Nebersdorf 05.03.2024 02:15 0,0 0,0 1,2 100,0
Neumarkt an der Raab 05.03.2024 02:15 0,0 0,0 5,1 99,0
Neusiedl am See 05.03.2024 02:15 0,0 0,0 9,8
Neustift an der Rosalia 05.03.2024 02:15 0,0 0,0 7,5 74,0
Nickelsdorf 05.03.2024 02:15 0,0 0,0 8,7 89,0
Nikitsch 05.03.2024 02:15 0,0 0,0 1,3 99,0
Oberpullendorf 05.03.2024 02:15 0,0 0,0 2,7 92,0
Oberwart 05.03.2024 02:15 0,0 0,0 4,7 88,0
Pinkafeld 05.03.2024 02:15 0,0 0,0 4,3 100,0
Pottschach 05.03.2024 02:15 0,0 0,0 3,5
Puchberg 05.03.2024 02:15 0,0 0,0 6,5
Redlschlag 05.03.2024 02:15 0,0 0,0 7,4 56,3
Ritzing 05.03.2024 02:15 0,0 3,5 7,9 85,0
Rust 05.03.2024 02:15 0,0 0,0 10,0 73,0
Seibersdorf 05.03.2024 02:15 0,0 0,0
Sieggraben 05.03.2024 02:15 0,0 0,0 6,5 80,0
St. Margarethen - Berg 05.03.2024 02:15 0,0 0,0 8,2 83,0
St. Michael 05.03.2024 02:15 0,0 0,0 2,0 100,0
Stadtschlaining 05.03.2024 02:15 0,0 0,0 3,3 100,0
Trausdorf 05.03.2024 02:15 0,0 0,0 9,8 76,0
Wiener Neustadt 05.03.2024 02:15 0,0 0,0 5,2
Woerterberg 05.03.2024 02:15 0,0 0,0 6,2
Wulkaprodersdorf 05.03.2024 02:15 0,0 0,0 8,2 80,0
Zurndorf - Friedrichshof 05.03.2024 02:15 0,0 0,0 8,8 79,0